sensor_id;sensor_type;location;lat;lon;timestamp;temperature;humidity
28837;DHT22;50669;50.982;11.022;2023-04-24T00:00:46;19.50;74.60
28837;DHT22;50669;50.982;11.022;2023-04-24T00:03:12;19.50;74.60
28837;DHT22;50669;50.982;11.022;2023-04-24T00:05:40;19.50;74.60
28837;DHT22;50669;50.982;11.022;2023-04-24T00:08:08;19.40;74.50
28837;DHT22;50669;50.982;11.022;2023-04-24T00:10:36;19.40;74.50
28837;DHT22;50669;50.982;11.022;2023-04-24T00:13:04;19.50;74.50
28837;DHT22;50669;50.982;11.022;2023-04-24T00:15:31;19.40;74.50
28837;DHT22;50669;50.982;11.022;2023-04-24T00:17:57;19.40;74.50
28837;DHT22;50669;50.982;11.022;2023-04-24T00:20:23;19.40;74.50
28837;DHT22;50669;50.982;11.022;2023-04-24T00:22:48;19.40;74.60
28837;DHT22;50669;50.982;11.022;2023-04-24T00:25:15;19.50;74.70
28837;DHT22;50669;50.982;11.022;2023-04-24T00:27:40;19.40;74.70
28837;DHT22;50669;50.982;11.022;2023-04-24T00:30:07;19.40;74.60
28837;DHT22;50669;50.982;11.022;2023-04-24T00:32:35;19.40;74.60
28837;DHT22;50669;50.982;11.022;2023-04-24T00:35:00;19.40;74.60
28837;DHT22;50669;50.982;11.022;2023-04-24T00:37:26;19.40;74.60
28837;DHT22;50669;50.982;11.022;2023-04-24T00:39:52;19.40;74.70
28837;DHT22;50669;50.982;11.022;2023-04-24T00:42:19;19.40;74.70
28837;DHT22;50669;50.982;11.022;2023-04-24T00:44:48;19.40;74.70
28837;DHT22;50669;50.982;11.022;2023-04-24T00:47:14;19.40;74.70
28837;DHT22;50669;50.982;11.022;2023-04-24T00:49:39;19.40;74.70
28837;DHT22;50669;50.982;11.022;2023-04-24T00:52:07;19.40;74.70
28837;DHT22;50669;50.982;11.022;2023-04-24T00:54:34;19.40;74.70
28837;DHT22;50669;50.982;11.022;2023-04-24T00:57:02;19.40;74.70
28837;DHT22;50669;50.982;11.022;2023-04-24T00:59:27;19.40;74.70
28837;DHT22;50669;50.982;11.022;2023-04-24T01:01:56;19.40;74.70
28837;DHT22;50669;50.982;11.022;2023-04-24T01:04:22;19.40;74.80
28837;DHT22;50669;50.982;11.022;2023-04-24T01:06:48;19.40;74.70
28837;DHT22;50669;50.982;11.022;2023-04-24T01:09:18;19.40;74.80
28837;DHT22;50669;50.982;11.022;2023-04-24T01:11:47;19.40;74.80
28837;DHT22;50669;50.982;11.022;2023-04-24T01:14:15;19.40;74.80
28837;DHT22;50669;50.982;11.022;2023-04-24T01:16:43;19.40;74.80
28837;DHT22;50669;50.982;11.022;2023-04-24T01:19:10;19.40;74.80
28837;DHT22;50669;50.982;11.022;2023-04-24T01:21:37;19.40;74.80
28837;DHT22;50669;50.982;11.022;2023-04-24T01:24:05;19.40;74.80
28837;DHT22;50669;50.982;11.022;2023-04-24T01:26:33;19.40;74.80
28837;DHT22;50669;50.982;11.022;2023-04-24T01:28:59;19.40;74.90
28837;DHT22;50669;50.982;11.022;2023-04-24T01:31:25;19.40;74.80
28837;DHT22;50669;50.982;11.022;2023-04-24T01:33:51;19.40;74.90
28837;DHT22;50669;50.982;11.022;2023-04-24T01:36:21;19.40;75.00
28837;DHT22;50669;50.982;11.022;2023-04-24T01:38:49;19.40;75.00
28837;DHT22;50669;50.982;11.022;2023-04-24T01:41:15;19.40;75.00
28837;DHT22;50669;50.982;11.022;2023-04-24T01:43:41;19.40;75.00
28837;DHT22;50669;50.982;11.022;2023-04-24T01:46:09;19.30;74.90
28837;DHT22;50669;50.982;11.022;2023-04-24T01:48:37;19.30;75.00
28837;DHT22;50669;50.982;11.022;2023-04-24T01:51:05;19.30;75.00
28837;DHT22;50669;50.982;11.022;2023-04-24T01:53:30;19.30;74.90
28837;DHT22;50669;50.982;11.022;2023-04-24T01:55:58;19.30;75.00
28837;DHT22;50669;50.982;11.022;2023-04-24T01:58:24;19.30;74.90
28837;DHT22;50669;50.982;11.022;2023-04-24T02:00:51;19.30;75.00
28837;DHT22;50669;50.982;11.022;2023-04-24T02:03:19;19.30;75.00
28837;DHT22;50669;50.982;11.022;2023-04-24T02:05:45;19.40;75.10
28837;DHT22;50669;50.982;11.022;2023-04-24T02:08:13;19.30;75.00
28837;DHT22;50669;50.982;11.022;2023-04-24T02:10:38;19.30;75.00
28837;DHT22;50669;50.982;11.022;2023-04-24T02:13:04;19.30;75.10
28837;DHT22;50669;50.982;11.022;2023-04-24T02:15:30;19.30;75.10
28837;DHT22;50669;50.982;11.022;2023-04-24T02:17:55;19.30;74.90
28837;DHT22;50669;50.982;11.022;2023-04-24T02:20:24;19.30;75.10
28837;DHT22;50669;50.982;11.022;2023-04-24T02:22:49;19.30;75.10
28837;DHT22;50669;50.982;11.022;2023-04-24T02:25:16;19.30;75.10
28837;DHT22;50669;50.982;11.022;2023-04-24T02:27:44;19.30;75.10
28837;DHT22;50669;50.982;11.022;2023-04-24T02:30:10;19.30;75.10
28837;DHT22;50669;50.982;11.022;2023-04-24T02:32:38;19.30;75.00
28837;DHT22;50669;50.982;11.022;2023-04-24T02:35:04;19.30;75.10
28837;DHT22;50669;50.982;11.022;2023-04-24T02:37:30;19.30;75.10
28837;DHT22;50669;50.982;11.022;2023-04-24T02:39:58;19.30;75.10
28837;DHT22;50669;50.982;11.022;2023-04-24T02:42:26;19.30;75.10
28837;DHT22;50669;50.982;11.022;2023-04-24T02:44:54;19.30;75.10
28837;DHT22;50669;50.982;11.022;2023-04-24T02:47:20;19.30;75.10
28837;DHT22;50669;50.982;11.022;2023-04-24T02:49:45;19.30;75.10
28837;DHT22;50669;50.982;11.022;2023-04-24T02:52:11;19.30;75.20
28837;DHT22;50669;50.982;11.022;2023-04-24T02:54:39;19.30;75.20
28837;DHT22;50669;50.982;11.022;2023-04-24T02:57:04;19.30;75.20
28837;DHT22;50669;50.982;11.022;2023-04-24T02:59:31;19.30;75.20
28837;DHT22;50669;50.982;11.022;2023-04-24T03:01:57;19.20;75.10
28837;DHT22;50669;50.982;11.022;2023-04-24T03:04:22;19.20;75.10
28837;DHT22;50669;50.982;11.022;2023-04-24T03:06:52;19.30;75.20
28837;DHT22;50669;50.982;11.022;2023-04-24T03:09:22;19.20;75.10
28837;DHT22;50669;50.982;11.022;2023-04-24T03:11:48;19.30;75.20
28837;DHT22;50669;50.982;11.022;2023-04-24T03:14:15;19.30;75.20
28837;DHT22;50669;50.982;11.022;2023-04-24T03:16:40;19.20;75.20
28837;DHT22;50669;50.982;11.022;2023-04-24T03:19:06;19.30;75.20
28837;DHT22;50669;50.982;11.022;2023-04-24T03:21:32;19.20;75.20
28837;DHT22;50669;50.982;11.022;2023-04-24T03:24:00;19.30;75.20
28837;DHT22;50669;50.982;11.022;2023-04-24T03:26:26;19.20;75.20
28837;DHT22;50669;50.982;11.022;2023-04-24T03:28:52;19.20;75.20
28837;DHT22;50669;50.982;11.022;2023-04-24T03:31:20;19.20;75.20
28837;DHT22;50669;50.982;11.022;2023-04-24T03:33:46;19.20;75.20
28837;DHT22;50669;50.982;11.022;2023-04-24T03:36:12;19.20;75.20
28837;DHT22;50669;50.982;11.022;2023-04-24T03:38:42;19.20;75.30
28837;DHT22;50669;50.982;11.022;2023-04-24T03:41:08;19.20;75.10
28837;DHT22;50669;50.982;11.022;2023-04-24T03:43:36;19.20;75.30
28837;DHT22;50669;50.982;11.022;2023-04-24T03:46:01;19.20;75.20
28837;DHT22;50669;50.982;11.022;2023-04-24T03:48:27;19.20;75.20
28837;DHT22;50669;50.982;11.022;2023-04-24T03:50:53;19.20;75.30
28837;DHT22;50669;50.982;11.022;2023-04-24T03:53:23;19.20;75.30
28837;DHT22;50669;50.982;11.022;2023-04-24T03:55:54;19.20;75.20
28837;DHT22;50669;50.982;11.022;2023-04-24T03:58:20;19.20;75.30
28837;DHT22;50669;50.982;11.022;2023-04-24T04:00:46;19.20;75.20
28837;DHT22;50669;50.982;11.022;2023-04-24T04:03:13;19.20;75.30
28837;DHT22;50669;50.982;11.022;2023-04-24T04:05:40;19.20;75.30
28837;DHT22;50669;50.982;11.022;2023-04-24T04:08:06;19.20;75.30
28837;DHT22;50669;50.982;11.022;2023-04-24T04:10:31;19.20;75.30
28837;DHT22;50669;50.982;11.022;2023-04-24T04:12:59;19.10;75.30
28837;DHT22;50669;50.982;11.022;2023-04-24T04:15:27;19.20;75.30
28837;DHT22;50669;50.982;11.022;2023-04-24T04:17:57;19.20;75.30
28837;DHT22;50669;50.982;11.022;2023-04-24T04:20:23;19.20;75.40
28837;DHT22;50669;50.982;11.022;2023-04-24T04:22:49;19.20;75.30
28837;DHT22;50669;50.982;11.022;2023-04-24T04:25:14;19.20;75.30
28837;DHT22;50669;50.982;11.022;2023-04-24T04:27:40;19.20;75.30
28837;DHT22;50669;50.982;11.022;2023-04-24T04:30:07;19.20;75.40
28837;DHT22;50669;50.982;11.022;2023-04-24T04:32:39;19.20;75.40
28837;DHT22;50669;50.982;11.022;2023-04-24T04:35:05;19.20;75.30
28837;DHT22;50669;50.982;11.022;2023-04-24T04:37:34;19.20;75.30
28837;DHT22;50669;50.982;11.022;2023-04-24T04:40:00;19.20;75.40
28837;DHT22;50669;50.982;11.022;2023-04-24T04:42:26;19.20;75.40
28837;DHT22;50669;50.982;11.022;2023-04-24T04:44:54;19.20;75.30
28837;DHT22;50669;50.982;11.022;2023-04-24T04:47:23;19.20;75.40
28837;DHT22;50669;50.982;11.022;2023-04-24T04:49:49;19.20;75.40
28837;DHT22;50669;50.982;11.022;2023-04-24T04:52:14;19.20;75.40
28837;DHT22;50669;50.982;11.022;2023-04-24T04:54:42;19.20;75.40
28837;DHT22;50669;50.982;11.022;2023-04-24T04:57:10;19.20;75.40
28837;DHT22;50669;50.982;11.022;2023-04-24T04:59:36;19.20;75.40
28837;DHT22;50669;50.982;11.022;2023-04-24T05:02:02;19.20;75.40
28837;DHT22;50669;50.982;11.022;2023-04-24T05:04:30;19.20;75.40
28837;DHT22;50669;50.982;11.022;2023-04-24T05:06:56;19.20;75.40
28837;DHT22;50669;50.982;11.022;2023-04-24T05:09:22;19.20;75.40
28837;DHT22;50669;50.982;11.022;2023-04-24T05:11:47;19.20;75.40
28837;DHT22;50669;50.982;11.022;2023-04-24T05:14:13;19.20;75.40
28837;DHT22;50669;50.982;11.022;2023-04-24T05:16:39;19.20;75.40
28837;DHT22;50669;50.982;11.022;2023-04-24T05:19:08;19.20;75.40
28837;DHT22;50669;50.982;11.022;2023-04-24T05:21:34;19.20;75.40
28837;DHT22;50669;50.982;11.022;2023-04-24T05:24:02;19.20;75.40
28837;DHT22;50669;50.982;11.022;2023-04-24T05:26:28;19.20;75.40
28837;DHT22;50669;50.982;11.022;2023-04-24T05:28:53;19.20;75.40
28837;DHT22;50669;50.982;11.022;2023-04-24T05:31:19;19.20;75.40
28837;DHT22;50669;50.982;11.022;2023-04-24T05:33:45;19.20;75.40
28837;DHT22;50669;50.982;11.022;2023-04-24T05:36:10;19.20;75.40
28837;DHT22;50669;50.982;11.022;2023-04-24T05:38:36;19.20;75.40
28837;DHT22;50669;50.982;11.022;2023-04-24T05:41:02;19.20;75.40
28837;DHT22;50669;50.982;11.022;2023-04-24T05:43:28;19.20;75.40
28837;DHT22;50669;50.982;11.022;2023-04-24T05:45:53;19.20;75.40
28837;DHT22;50669;50.982;11.022;2023-04-24T05:48:19;19.20;75.40
28837;DHT22;50669;50.982;11.022;2023-04-24T05:50:47;19.20;75.40
28837;DHT22;50669;50.982;11.022;2023-04-24T05:53:16;19.20;75.40
28837;DHT22;50669;50.982;11.022;2023-04-24T05:55:41;19.20;75.40
28837;DHT22;50669;50.982;11.022;2023-04-24T05:58:07;19.10;75.30
28837;DHT22;50669;50.982;11.022;2023-04-24T06:00:35;19.20;75.40
28837;DHT22;50669;50.982;11.022;2023-04-24T06:03:05;19.10;76.10
28837;DHT22;50669;50.982;11.022;2023-04-24T06:05:33;19.10;75.40
28837;DHT22;50669;50.982;11.022;2023-04-24T06:07:59;19.20;75.40
28837;DHT22;50669;50.982;11.022;2023-04-24T06:10:24;19.20;75.40
28837;DHT22;50669;50.982;11.022;2023-04-24T06:12:53;19.20;75.40
28837;DHT22;50669;50.982;11.022;2023-04-24T06:15:21;19.10;75.40
28837;DHT22;50669;50.982;11.022;2023-04-24T06:17:49;19.20;75.40
28837;DHT22;50669;50.982;11.022;2023-04-24T06:20:15;19.20;75.40
28837;DHT22;50669;50.982;11.022;2023-04-24T06:22:41;19.10;75.40
28837;DHT22;50669;50.982;11.022;2023-04-24T06:25:07;19.20;75.40
28837;DHT22;50669;50.982;11.022;2023-04-24T06:27:33;19.10;75.30
28837;DHT22;50669;50.982;11.022;2023-04-24T06:29:58;19.20;75.40
28837;DHT22;50669;50.982;11.022;2023-04-24T06:32:24;19.20;75.40
28837;DHT22;50669;50.982;11.022;2023-04-24T06:34:54;19.20;75.40
28837;DHT22;50669;50.982;11.022;2023-04-24T06:37:22;19.20;75.40
28837;DHT22;50669;50.982;11.022;2023-04-24T06:39:50;19.20;75.40
28837;DHT22;50669;50.982;11.022;2023-04-24T06:42:16;19.20;75.40
28837;DHT22;50669;50.982;11.022;2023-04-24T06:44:41;19.10;75.40
28837;DHT22;50669;50.982;11.022;2023-04-24T06:47:08;19.20;75.40
28837;DHT22;50669;50.982;11.022;2023-04-24T06:49:37;19.20;75.40
28837;DHT22;50669;50.982;11.022;2023-04-24T06:52:03;19.20;75.40
28837;DHT22;50669;50.982;11.022;2023-04-24T06:54:29;19.20;75.40
28837;DHT22;50669;50.982;11.022;2023-04-24T06:56:55;19.20;75.40
28837;DHT22;50669;50.982;11.022;2023-04-24T06:59:25;19.20;75.40
28837;DHT22;50669;50.982;11.022;2023-04-24T07:01:51;19.20;75.30
28837;DHT22;50669;50.982;11.022;2023-04-24T07:04:17;19.20;75.40
28837;DHT22;50669;50.982;11.022;2023-04-24T07:06:45;19.20;75.40
28837;DHT22;50669;50.982;11.022;2023-04-24T07:09:13;19.20;75.40
28837;DHT22;50669;50.982;11.022;2023-04-24T07:11:39;19.20;75.40
28837;DHT22;50669;50.982;11.022;2023-04-24T07:14:06;19.20;75.40
28837;DHT22;50669;50.982;11.022;2023-04-24T07:16:32;19.20;75.40
28837;DHT22;50669;50.982;11.022;2023-04-24T07:19:03;19.20;75.40
28837;DHT22;50669;50.982;11.022;2023-04-24T07:21:28;19.20;75.40
28837;DHT22;50669;50.982;11.022;2023-04-24T07:23:54;19.20;75.40
28837;DHT22;50669;50.982;11.022;2023-04-24T07:26:24;19.20;75.30
28837;DHT22;50669;50.982;11.022;2023-04-24T07:28:50;19.20;75.40
28837;DHT22;50669;50.982;11.022;2023-04-24T07:31:16;19.20;75.30
28837;DHT22;50669;50.982;11.022;2023-04-24T07:33:41;19.20;75.20
28837;DHT22;50669;50.982;11.022;2023-04-24T07:36:09;19.20;75.30
28837;DHT22;50669;50.982;11.022;2023-04-24T07:38:43;19.20;75.30
28837;DHT22;50669;50.982;11.022;2023-04-24T07:41:09;19.20;75.30
28837;DHT22;50669;50.982;11.022;2023-04-24T07:43:37;19.20;75.30
28837;DHT22;50669;50.982;11.022;2023-04-24T07:46:03;19.20;75.30
28837;DHT22;50669;50.982;11.022;2023-04-24T07:48:28;19.20;76.10
28837;DHT22;50669;50.982;11.022;2023-04-24T07:50:54;19.20;75.30
28837;DHT22;50669;50.982;11.022;2023-04-24T07:53:20;19.20;75.30
28837;DHT22;50669;50.982;11.022;2023-04-24T07:55:46;19.20;75.40
28837;DHT22;50669;50.982;11.022;2023-04-24T07:58:12;19.20;75.20
28837;DHT22;50669;50.982;11.022;2023-04-24T08:00:40;19.20;75.30
28837;DHT22;50669;50.982;11.022;2023-04-24T08:03:08;19.20;75.30
28837;DHT22;50669;50.982;11.022;2023-04-24T08:05:36;19.20;75.20
28837;DHT22;50669;50.982;11.022;2023-04-24T08:08:02;19.20;75.20
28837;DHT22;50669;50.982;11.022;2023-04-24T08:10:30;19.20;75.30
28837;DHT22;50669;50.982;11.022;2023-04-24T08:12:57;19.20;75.20
28837;DHT22;50669;50.982;11.022;2023-04-24T08:15:23;19.20;75.20
28837;DHT22;50669;50.982;11.022;2023-04-24T08:17:53;19.20;75.20
28837;DHT22;50669;50.982;11.022;2023-04-24T08:20:21;19.20;75.20
28837;DHT22;50669;50.982;11.022;2023-04-24T08:22:49;19.20;75.20
28837;DHT22;50669;50.982;11.022;2023-04-24T08:25:15;19.20;75.20
28837;DHT22;50669;50.982;11.022;2023-04-24T08:27:40;19.20;75.20
28837;DHT22;50669;50.982;11.022;2023-04-24T08:30:07;19.20;75.20
28837;DHT22;50669;50.982;11.022;2023-04-24T08:32:35;19.20;75.90
28837;DHT22;50669;50.982;11.022;2023-04-24T08:35:01;19.20;75.20
28837;DHT22;50669;50.982;11.022;2023-04-24T08:37:27;19.20;75.20
28837;DHT22;50669;50.982;11.022;2023-04-24T08:39:53;19.20;75.20
28837;DHT22;50669;50.982;11.022;2023-04-24T08:42:21;19.20;75.20
28837;DHT22;50669;50.982;11.022;2023-04-24T08:44:50;19.20;75.20
28837;DHT22;50669;50.982;11.022;2023-04-24T08:47:16;19.20;75.20
28837;DHT22;50669;50.982;11.022;2023-04-24T08:49:42;19.20;75.20
28837;DHT22;50669;50.982;11.022;2023-04-24T08:52:09;19.20;75.20
28837;DHT22;50669;50.982;11.022;2023-04-24T08:54:38;19.20;75.10
28837;DHT22;50669;50.982;11.022;2023-04-24T08:57:07;19.20;75.10
28837;DHT22;50669;50.982;11.022;2023-04-24T08:59:38;19.30;75.20
28837;DHT22;50669;50.982;11.022;2023-04-24T09:02:07;19.30;75.30
28837;DHT22;50669;50.982;11.022;2023-04-24T09:04:37;19.20;75.20
28837;DHT22;50669;50.982;11.022;2023-04-24T09:07:04;19.20;75.10
28837;DHT22;50669;50.982;11.022;2023-04-24T09:09:34;19.30;75.20
28837;DHT22;50669;50.982;11.022;2023-04-24T09:12:03;19.30;75.20
28837;DHT22;50669;50.982;11.022;2023-04-24T09:14:31;19.30;75.20
28837;DHT22;50669;50.982;11.022;2023-04-24T09:17:02;19.30;75.20
28837;DHT22;50669;50.982;11.022;2023-04-24T09:19:30;19.30;75.20
28837;DHT22;50669;50.982;11.022;2023-04-24T09:21:56;19.30;75.20
28837;DHT22;50669;50.982;11.022;2023-04-24T09:24:22;19.30;75.20
28837;DHT22;50669;50.982;11.022;2023-04-24T09:26:49;19.30;75.20
28837;DHT22;50669;50.982;11.022;2023-04-24T09:29:18;19.30;75.20
28837;DHT22;50669;50.982;11.022;2023-04-24T09:31:47;19.30;75.30
28837;DHT22;50669;50.982;11.022;2023-04-24T09:34:13;19.20;75.10
28837;DHT22;50669;50.982;11.022;2023-04-24T09:36:44;19.30;75.20
28837;DHT22;50669;50.982;11.022;2023-04-24T09:39:14;19.30;75.20
28837;DHT22;50669;50.982;11.022;2023-04-24T09:41:53;19.30;75.20
28837;DHT22;50669;50.982;11.022;2023-04-24T09:44:23;19.30;75.20
28837;DHT22;50669;50.982;11.022;2023-04-24T09:46:51;19.30;75.20
28837;DHT22;50669;50.982;11.022;2023-04-24T09:49:25;19.30;75.20
28837;DHT22;50669;50.982;11.022;2023-04-24T09:51:51;19.30;75.10
28837;DHT22;50669;50.982;11.022;2023-04-24T09:54:20;19.30;75.20
28837;DHT22;50669;50.982;11.022;2023-04-24T09:56:48;19.30;75.10
28837;DHT22;50669;50.982;11.022;2023-04-24T09:59:16;19.30;75.10
28837;DHT22;50669;50.982;11.022;2023-04-24T10:01:45;19.40;75.20
28837;DHT22;50669;50.982;11.022;2023-04-24T10:04:25;19.30;75.10
28837;DHT22;50669;50.982;11.022;2023-04-24T10:06:52;19.30;75.10
28837;DHT22;50669;50.982;11.022;2023-04-24T10:09:20;19.40;75.20
28837;DHT22;50669;50.982;11.022;2023-04-24T10:11:48;19.30;75.10
28837;DHT22;50669;50.982;11.022;2023-04-24T10:14:23;19.30;75.10
28837;DHT22;50669;50.982;11.022;2023-04-24T10:16:52;19.30;75.10
28837;DHT22;50669;50.982;11.022;2023-04-24T10:19:18;19.40;75.20
28837;DHT22;50669;50.982;11.022;2023-04-24T10:21:45;19.40;75.10
28837;DHT22;50669;50.982;11.022;2023-04-24T10:24:17;19.40;75.10
28837;DHT22;50669;50.982;11.022;2023-04-24T10:26:44;19.40;75.10
28837;DHT22;50669;50.982;11.022;2023-04-24T10:29:16;19.40;75.10
28837;DHT22;50669;50.982;11.022;2023-04-24T10:31:43;19.40;75.00
28837;DHT22;50669;50.982;11.022;2023-04-24T10:34:12;19.40;75.10
28837;DHT22;50669;50.982;11.022;2023-04-24T10:36:43;19.40;75.10
28837;DHT22;50669;50.982;11.022;2023-04-24T10:39:13;19.40;75.00
28837;DHT22;50669;50.982;11.022;2023-04-24T10:41:40;19.40;75.00
28837;DHT22;50669;50.982;11.022;2023-04-24T10:44:07;19.40;74.90
28837;DHT22;50669;50.982;11.022;2023-04-24T10:46:33;19.40;74.80
28837;DHT22;50669;50.982;11.022;2023-04-24T10:49:04;19.40;75.00
28837;DHT22;50669;50.982;11.022;2023-04-24T10:51:51;19.40;75.00
28837;DHT22;50669;50.982;11.022;2023-04-24T10:54:35;19.40;75.00
28837;DHT22;50669;50.982;11.022;2023-04-24T11:00:09;19.40;75.00
28837;DHT22;50669;50.982;11.022;2023-04-24T11:02:38;19.40;75.00
28837;DHT22;50669;50.982;11.022;2023-04-24T11:05:06;19.40;75.00
28837;DHT22;50669;50.982;11.022;2023-04-24T11:08:21;19.40;74.90
28837;DHT22;50669;50.982;11.022;2023-04-24T11:13:27;19.50;75.00
28837;DHT22;50669;50.982;11.022;2023-04-24T11:16:12;19.40;74.90
28837;DHT22;50669;50.982;11.022;2023-04-24T11:18:43;19.40;75.00
28837;DHT22;50669;50.982;11.022;2023-04-24T11:21:18;19.40;74.90
28837;DHT22;50669;50.982;11.022;2023-04-24T11:23:45;19.50;75.00
28837;DHT22;50669;50.982;11.022;2023-04-24T11:26:19;19.40;75.00
28837;DHT22;50669;50.982;11.022;2023-04-24T11:28:50;19.50;75.00
28837;DHT22;50669;50.982;11.022;2023-04-24T11:34:08;19.50;74.90
28837;DHT22;50669;50.982;11.022;2023-04-24T11:36:37;19.50;74.80
28837;DHT22;50669;50.982;11.022;2023-04-24T11:39:05;19.50;74.90
28837;DHT22;50669;50.982;11.022;2023-04-24T11:41:32;19.50;74.80
28837;DHT22;50669;50.982;11.022;2023-04-24T11:43:59;19.50;74.90
28837;DHT22;50669;50.982;11.022;2023-04-24T11:46:31;19.50;74.90
28837;DHT22;50669;50.982;11.022;2023-04-24T11:48:58;19.50;74.90
28837;DHT22;50669;50.982;11.022;2023-04-24T11:51:25;19.50;74.90
28837;DHT22;50669;50.982;11.022;2023-04-24T11:53:52;19.50;74.90
28837;DHT22;50669;50.982;11.022;2023-04-24T11:56:21;19.50;74.90
28837;DHT22;50669;50.982;11.022;2023-04-24T11:58:47;19.50;74.80
28837;DHT22;50669;50.982;11.022;2023-04-24T12:01:13;19.50;74.90
28837;DHT22;50669;50.982;11.022;2023-04-24T12:03:41;19.50;74.90
28837;DHT22;50669;50.982;11.022;2023-04-24T12:06:12;19.60;74.80
28837;DHT22;50669;50.982;11.022;2023-04-24T12:08:40;19.60;74.70
28837;DHT22;50669;50.982;11.022;2023-04-24T12:11:06;19.60;74.80
28837;DHT22;50669;50.982;11.022;2023-04-24T12:13:33;19.70;74.70
28837;DHT22;50669;50.982;11.022;2023-04-24T12:16:04;19.70;74.70
28837;DHT22;50669;50.982;11.022;2023-04-24T12:18:33;19.70;74.60
28837;DHT22;50669;50.982;11.022;2023-04-24T12:21:15;19.70;74.50
28837;DHT22;50669;50.982;11.022;2023-04-24T12:23:48;19.80;74.50
28837;DHT22;50669;50.982;11.022;2023-04-24T12:26:18;19.80;74.30
28837;DHT22;50669;50.982;11.022;2023-04-24T12:28:47;19.90;74.30
28837;DHT22;50669;50.982;11.022;2023-04-24T12:31:23;19.80;74.20
28837;DHT22;50669;50.982;11.022;2023-04-24T12:33:49;19.80;74.20
28837;DHT22;50669;50.982;11.022;2023-04-24T12:36:14;19.80;74.20
28837;DHT22;50669;50.982;11.022;2023-04-24T12:38:43;19.80;74.30
28837;DHT22;50669;50.982;11.022;2023-04-24T12:41:13;19.80;74.40
28837;DHT22;50669;50.982;11.022;2023-04-24T12:43:53;19.80;74.50
28837;DHT22;50669;50.982;11.022;2023-04-24T12:46:19;19.70;74.50
28837;DHT22;50669;50.982;11.022;2023-04-24T12:48:45;19.70;74.60
28837;DHT22;50669;50.982;11.022;2023-04-24T12:51:10;19.70;74.70
28837;DHT22;50669;50.982;11.022;2023-04-24T12:53:36;19.70;74.70
28837;DHT22;50669;50.982;11.022;2023-04-24T12:56:02;19.70;74.70
28837;DHT22;50669;50.982;11.022;2023-04-24T12:58:27;19.70;74.70
28837;DHT22;50669;50.982;11.022;2023-04-24T13:00:55;19.70;74.70
28837;DHT22;50669;50.982;11.022;2023-04-24T13:03:21;19.70;74.70
28837;DHT22;50669;50.982;11.022;2023-04-24T13:05:50;19.70;74.70
28837;DHT22;50669;50.982;11.022;2023-04-24T13:08:15;19.70;74.60
28837;DHT22;50669;50.982;11.022;2023-04-24T13:10:45;19.70;74.60
28837;DHT22;50669;50.982;11.022;2023-04-24T13:13:13;19.70;74.60
28837;DHT22;50669;50.982;11.022;2023-04-24T13:15:42;19.70;74.50
28837;DHT22;50669;50.982;11.022;2023-04-24T13:18:07;19.70;74.50
28837;DHT22;50669;50.982;11.022;2023-04-24T13:20:35;19.70;74.50
28837;DHT22;50669;50.982;11.022;2023-04-24T13:23:01;19.70;74.50
28837;DHT22;50669;50.982;11.022;2023-04-24T13:25:35;19.70;74.50
28837;DHT22;50669;50.982;11.022;2023-04-24T13:28:01;19.70;74.50
28837;DHT22;50669;50.982;11.022;2023-04-24T13:30:29;19.70;74.50
28837;DHT22;50669;50.982;11.022;2023-04-24T13:32:57;19.70;74.60
28837;DHT22;50669;50.982;11.022;2023-04-24T13:35:23;19.70;74.70
28837;DHT22;50669;50.982;11.022;2023-04-24T13:37:49;19.70;74.70
28837;DHT22;50669;50.982;11.022;2023-04-24T13:40:19;19.70;74.70
28837;DHT22;50669;50.982;11.022;2023-04-24T13:42:47;19.70;74.70
28837;DHT22;50669;50.982;11.022;2023-04-24T13:45:13;19.70;74.50
28837;DHT22;50669;50.982;11.022;2023-04-24T13:47:39;19.70;74.50
28837;DHT22;50669;50.982;11.022;2023-04-24T13:50:08;19.80;74.60
28837;DHT22;50669;50.982;11.022;2023-04-24T13:52:34;19.70;74.50
28837;DHT22;50669;50.982;11.022;2023-04-24T13:55:00;19.70;74.50
28837;DHT22;50669;50.982;11.022;2023-04-24T13:57:26;19.80;74.60
28837;DHT22;50669;50.982;11.022;2023-04-24T13:59:54;19.70;74.60
28837;DHT22;50669;50.982;11.022;2023-04-24T14:02:23;19.70;74.60
28837;DHT22;50669;50.982;11.022;2023-04-24T14:04:51;19.70;74.70
28837;DHT22;50669;50.982;11.022;2023-04-24T14:07:17;19.70;74.50
28837;DHT22;50669;50.982;11.022;2023-04-24T14:09:42;19.70;74.60
28837;DHT22;50669;50.982;11.022;2023-04-24T14:12:10;19.70;74.60
28837;DHT22;50669;50.982;11.022;2023-04-24T14:14:38;19.70;74.50
28837;DHT22;50669;50.982;11.022;2023-04-24T14:17:09;19.80;74.60
28837;DHT22;50669;50.982;11.022;2023-04-24T14:19:34;19.70;74.60
28837;DHT22;50669;50.982;11.022;2023-04-24T14:22:00;19.70;74.50
28837;DHT22;50669;50.982;11.022;2023-04-24T14:24:26;19.70;74.50
28837;DHT22;50669;50.982;11.022;2023-04-24T14:26:51;19.70;74.60
28837;DHT22;50669;50.982;11.022;2023-04-24T14:29:17;19.70;74.60
28837;DHT22;50669;50.982;11.022;2023-04-24T14:31:47;19.70;74.50
28837;DHT22;50669;50.982;11.022;2023-04-24T14:34:13;19.70;74.50
28837;DHT22;50669;50.982;11.022;2023-04-24T14:36:39;19.70;74.50
28837;DHT22;50669;50.982;11.022;2023-04-24T14:39:06;19.70;74.60
28837;DHT22;50669;50.982;11.022;2023-04-24T14:41:32;19.70;74.50
28837;DHT22;50669;50.982;11.022;2023-04-24T14:44:01;19.70;74.50
28837;DHT22;50669;50.982;11.022;2023-04-24T14:46:28;19.70;74.70
28837;DHT22;50669;50.982;11.022;2023-04-24T14:48:57;19.70;74.70
28837;DHT22;50669;50.982;11.022;2023-04-24T14:51:23;19.70;74.60
28837;DHT22;50669;50.982;11.022;2023-04-24T14:53:49;19.70;74.70
28837;DHT22;50669;50.982;11.022;2023-04-24T14:56:15;19.70;74.70
28837;DHT22;50669;50.982;11.022;2023-04-24T14:58:43;19.70;74.60
28837;DHT22;50669;50.982;11.022;2023-04-24T15:01:11;19.70;74.60
28837;DHT22;50669;50.982;11.022;2023-04-24T15:03:37;19.70;74.60
28837;DHT22;50669;50.982;11.022;2023-04-24T15:06:02;19.70;74.60
28837;DHT22;50669;50.982;11.022;2023-04-24T15:08:30;19.70;74.60
28837;DHT22;50669;50.982;11.022;2023-04-24T15:10:56;19.70;74.70
28837;DHT22;50669;50.982;11.022;2023-04-24T15:13:22;19.70;74.70
28837;DHT22;50669;50.982;11.022;2023-04-24T15:15:47;19.70;74.70
28837;DHT22;50669;50.982;11.022;2023-04-24T15:18:13;19.70;74.70
28837;DHT22;50669;50.982;11.022;2023-04-24T15:20:39;19.70;74.70
28837;DHT22;50669;50.982;11.022;2023-04-24T15:23:08;19.70;74.70
28837;DHT22;50669;50.982;11.022;2023-04-24T15:25:35;19.70;74.70